createdAt,value
2019-02-17T00:02:00.012Z,100388.00
2019-02-17T00:04:29.680Z,100390.00
2019-02-17T00:06:59.339Z,100382.00
2019-02-17T00:09:29.107Z,100387.00
2019-02-17T00:11:58.832Z,100383.00
2019-02-17T00:14:29.076Z,100381.00
2019-02-17T00:16:59.367Z,100371.00
2019-02-17T00:19:31.764Z,100370.00
2019-02-17T00:22:02.899Z,100358.00
2019-02-17T00:24:32.801Z,100366.00
2019-02-17T00:27:04.087Z,100360.00
2019-02-17T00:29:33.862Z,100350.00
2019-02-17T00:32:03.552Z,100353.00
2019-02-17T00:34:35.219Z,100342.00
2019-02-17T00:37:05.208Z,100344.00
2019-02-17T00:39:34.933Z,100325.00
2019-02-17T00:42:04.657Z,100338.00
2019-02-17T00:44:34.426Z,100334.00
2019-02-17T00:47:05.468Z,100319.00
2019-02-17T00:49:35.198Z,100317.00
2019-02-17T00:52:04.890Z,100315.00
2019-02-17T00:54:34.672Z,100313.00
2019-02-17T00:57:04.349Z,100306.00
2019-02-17T00:59:34.033Z,100312.00
2019-02-17T01:02:03.793Z,100300.00
2019-02-17T01:04:33.466Z,100297.00
2019-02-17T01:07:03.149Z,100305.00
2019-02-17T01:09:32.885Z,100296.00
2019-02-17T01:12:02.615Z,100298.00
2019-02-17T01:14:32.327Z,100294.00
2019-02-17T01:17:03.240Z,100279.00
2019-02-17T01:19:32.895Z,100278.00
2019-02-17T01:22:02.565Z,100276.00
2019-02-17T01:24:32.276Z,100286.00
2019-02-17T01:27:04.137Z,100269.00
2019-02-17T01:29:33.817Z,100255.00
2019-02-17T01:32:03.576Z,100262.00
2019-02-17T01:34:33.273Z,100252.00
2019-02-17T01:37:03.093Z,100252.00
2019-02-17T01:39:32.804Z,100256.00
2019-02-17T01:42:04.140Z,100246.00
2019-02-17T01:44:33.872Z,100233.00
2019-02-17T01:47:05.074Z,100241.00
2019-02-17T01:49:34.759Z,100246.00
2019-02-17T01:52:04.498Z,100248.00
2019-02-17T01:54:35.698Z,100245.00
2019-02-17T01:57:05.445Z,100242.00
2019-02-17T01:59:35.197Z,100235.00
2019-02-17T02:02:06.540Z,100228.00
2019-02-17T02:04:37.210Z,100231.00
2019-02-17T02:07:06.953Z,100221.00
2019-02-17T02:09:36.653Z,100222.00
2019-02-17T02:12:06.898Z,100198.00
2019-02-17T02:14:36.575Z,100197.00
2019-02-17T02:17:09.859Z,100197.00
2019-02-17T02:19:39.657Z,100196.00
2019-02-17T02:22:09.341Z,100197.00
2019-02-17T02:24:40.088Z,100195.00
2019-02-17T02:27:09.778Z,100186.00
2019-02-17T02:29:41.346Z,100185.00
2019-02-17T02:32:10.857Z,100177.00
2019-02-17T02:34:40.526Z,100173.00
2019-02-17T02:37:10.194Z,100167.00
2019-02-17T02:39:40.366Z,100167.00
2019-02-17T02:42:10.382Z,100170.00
2019-02-17T02:44:40.116Z,100168.00
2019-02-17T02:47:09.813Z,100154.00
2019-02-17T02:49:39.597Z,100156.00
2019-02-17T02:52:09.274Z,100157.00
2019-02-17T02:54:40.121Z,100153.00
2019-02-17T02:57:09.792Z,100150.00
2019-02-17T02:59:39.466Z,100142.00
2019-02-17T03:02:09.240Z,100142.00
2019-02-17T03:04:38.907Z,100131.00
2019-02-17T03:07:08.932Z,100124.00
2019-02-17T03:09:38.636Z,100117.00
2019-02-17T03:12:08.432Z,100120.00
2019-02-17T03:14:38.142Z,100116.00
2019-02-17T03:17:07.946Z,100117.00
2019-02-17T03:19:37.616Z,100106.00
2019-02-17T03:22:07.292Z,100117.00
2019-02-17T03:24:37.086Z,100116.00
2019-02-17T03:27:27.482Z,100110.00
2019-02-17T03:30:04.938Z,100098.00
2019-02-17T03:32:47.873Z,100097.00
2019-02-17T03:35:17.569Z,100095.00
2019-02-17T03:37:47.338Z,100090.00
2019-02-17T03:40:17.007Z,100098.00
2019-02-17T03:42:46.699Z,100089.00
2019-02-17T03:45:16.369Z,100094.00
2019-02-17T03:47:46.030Z,100084.00
2019-02-17T03:50:15.748Z,100086.00
2019-02-17T03:52:45.411Z,100078.00
2019-02-17T03:55:15.175Z,100077.00
2019-02-17T03:57:44.953Z,100068.00
2019-02-17T04:00:17.239Z,100063.00
2019-02-17T04:02:46.105Z,100060.00
2019-02-17T04:05:15.807Z,100043.00
2019-02-17T04:07:45.485Z,100049.00
2019-02-17T04:10:15.195Z,100049.00
2019-02-17T04:12:46.574Z,100043.00
2019-02-17T04:15:16.320Z,100035.00
2019-02-17T04:17:45.993Z,100045.00
2019-02-17T04:20:15.693Z,100050.00
2019-02-17T04:22:45.783Z,100041.00
2019-02-17T04:25:15.459Z,100041.00
2019-02-17T04:27:45.141Z,100037.00
2019-02-17T04:30:14.815Z,100020.00
2019-02-17T04:32:44.493Z,100033.00
2019-02-17T04:35:14.185Z,100027.00
2019-02-17T04:37:43.872Z,100019.00
2019-02-17T04:40:13.711Z,100026.00
2019-02-17T04:42:44.021Z,100015.00
2019-02-17T04:45:14.492Z,100017.00
2019-02-17T04:47:44.192Z,100020.00
2019-02-17T04:50:13.893Z,100018.00
2019-02-17T04:52:43.554Z,100014.00
2019-02-17T04:55:13.215Z,100013.00
2019-02-17T04:57:43.347Z,100010.00
2019-02-17T05:00:13.037Z,99999.00
2019-02-17T05:02:42.711Z,99999.00
2019-02-17T05:05:12.401Z,99990.00
2019-02-17T05:08:01.352Z,99990.00
2019-02-17T05:10:31.048Z,99983.00
2019-02-17T05:13:00.711Z,99979.00
2019-02-17T05:15:30.369Z,99977.00
2019-02-17T05:18:00.065Z,99973.00
2019-02-17T05:20:29.815Z,99964.00
2019-02-17T05:22:59.499Z,99972.00
2019-02-17T05:25:29.189Z,99964.00
2019-02-17T05:27:58.863Z,99959.00
2019-02-17T05:30:28.633Z,99953.00
2019-02-17T05:32:58.321Z,99950.00
2019-02-17T05:35:27.999Z,99944.00
2019-02-17T05:37:57.651Z,99937.00
2019-02-17T05:40:27.363Z,99934.00
2019-02-17T05:42:57.028Z,99929.00
2019-02-17T05:45:26.717Z,99910.00
2019-02-17T05:47:56.695Z,99931.00
2019-02-17T05:50:26.367Z,99934.00
2019-02-17T05:52:56.099Z,99934.00
2019-02-17T05:55:25.779Z,99937.00
2019-02-17T05:57:55.537Z,99932.00
2019-02-17T06:00:26.307Z,99929.00
2019-02-17T06:02:56.063Z,99926.00
2019-02-17T06:05:25.731Z,99917.00
2019-02-17T06:08:14.764Z,99922.00
2019-02-17T06:10:44.432Z,99926.00
2019-02-17T06:13:15.509Z,99920.00
2019-02-17T06:15:45.811Z,99920.00
2019-02-17T06:18:36.105Z,99922.00
2019-02-17T06:21:05.789Z,99923.00
2019-02-17T06:23:37.085Z,99915.00
2019-02-17T06:26:08.181Z,99926.00
2019-02-17T06:28:39.332Z,99933.00
2019-02-17T06:31:14.311Z,99929.00
2019-02-17T06:33:41.543Z,99924.00
2019-02-17T06:36:11.225Z,99925.00
2019-02-17T06:38:40.893Z,99918.00
2019-02-17T06:41:12.023Z,99916.00
2019-02-17T06:43:41.719Z,99904.00
2019-02-17T06:46:13.017Z,99915.00
2019-02-17T06:48:42.678Z,99907.00
2019-02-17T06:51:12.375Z,99903.00
2019-02-17T06:53:42.038Z,99893.00
2019-02-17T06:56:31.524Z,99898.00
2019-02-17T06:59:01.192Z,99892.00
2019-02-17T07:01:30.933Z,99880.00
2019-02-17T07:04:01.021Z,99882.00
2019-02-17T07:06:42.715Z,99896.00
2019-02-17T07:09:12.431Z,99888.00
2019-02-17T07:11:42.294Z,99895.00
2019-02-17T07:14:12.443Z,99897.00
2019-02-17T07:16:42.284Z,99884.00
2019-02-17T07:19:12.059Z,99883.00
2019-02-17T07:21:41.723Z,99885.00
2019-02-17T07:24:11.407Z,99872.00
2019-02-17T07:26:41.077Z,99866.00
2019-02-17T07:29:10.752Z,99868.00
2019-02-17T07:31:41.869Z,99871.00
2019-02-17T07:34:11.534Z,99869.00
2019-02-17T07:36:42.837Z,99865.00
2019-02-17T07:39:12.534Z,99865.00
2019-02-17T07:41:42.278Z,99868.00
2019-02-17T07:44:11.939Z,99862.00
2019-02-17T07:46:41.614Z,99855.00
2019-02-17T07:49:12.484Z,99859.00
2019-02-17T07:51:42.166Z,99862.00
2019-02-17T07:54:12.915Z,99862.00
2019-02-17T07:56:42.593Z,99852.00
2019-02-17T07:59:13.758Z,99848.00
2019-02-17T08:01:45.569Z,99845.00
2019-02-17T08:04:17.664Z,99839.00
2019-02-17T08:06:47.321Z,99812.00
2019-02-17T08:09:17.011Z,99820.00
2019-02-17T08:11:46.677Z,99808.00
2019-02-17T08:14:17.985Z,99806.00
2019-02-17T08:16:47.684Z,99811.00
2019-02-17T08:19:17.438Z,99802.00
2019-02-17T08:21:47.107Z,99800.00
2019-02-17T08:24:16.881Z,99804.00
2019-02-17T08:26:48.192Z,99803.00
2019-02-17T08:29:17.859Z,99789.00
2019-02-17T08:31:55.545Z,99790.00
2019-02-17T08:34:18.965Z,99792.00
2019-02-17T08:36:48.633Z,99792.00
2019-02-17T08:39:18.315Z,99795.00
2019-02-17T08:41:47.997Z,99803.00
2019-02-17T08:44:17.684Z,99813.00
2019-02-17T08:46:47.375Z,99803.00
2019-02-17T08:49:17.027Z,99795.00
2019-02-17T08:51:46.714Z,99808.00
2019-02-17T08:54:16.351Z,99806.00
2019-02-17T08:56:46.308Z,99806.00
2019-02-17T08:59:16.054Z,99807.00
2019-02-17T09:01:46.456Z,99802.00
2019-02-17T09:04:16.114Z,99800.00
2019-02-17T09:06:48.892Z,99796.00
2019-02-17T09:09:18.584Z,99813.00
2019-02-17T09:11:49.184Z,99811.00
2019-02-17T09:14:20.341Z,99819.00
2019-02-17T09:16:50.069Z,99809.00
2019-02-17T09:19:19.794Z,99808.00
2019-02-17T09:21:49.528Z,99798.00
2019-02-17T09:24:19.259Z,99788.00
2019-02-17T09:26:50.577Z,99787.00
2019-02-17T09:29:20.357Z,99776.00
2019-02-17T09:31:50.048Z,99772.00
2019-02-17T09:34:19.733Z,99763.00
2019-02-17T09:36:55.595Z,99681.00
2019-02-17T09:39:25.286Z,99771.00
2019-02-17T09:41:54.950Z,99768.00
2019-02-17T09:44:24.660Z,99772.00
2019-02-17T09:46:54.337Z,99779.00
2019-02-17T09:49:24.814Z,99796.00
2019-02-17T09:51:55.984Z,99791.00
2019-02-17T09:54:25.705Z,99794.00
2019-02-17T09:56:56.470Z,99781.00
2019-02-17T09:59:26.167Z,99770.00
2019-02-17T10:01:56.168Z,99774.00
2019-02-17T10:04:26.076Z,99780.00
2019-02-17T10:06:55.828Z,99785.00
2019-02-17T10:09:25.506Z,99798.00
2019-02-17T10:11:55.270Z,99791.00
2019-02-17T10:14:26.629Z,99790.00
2019-02-17T10:16:56.300Z,99801.00
2019-02-17T10:19:26.002Z,99801.00
2019-02-17T10:21:55.722Z,99806.00
2019-02-17T10:24:25.460Z,99827.00
2019-02-17T10:26:55.181Z,99821.00
2019-02-17T10:29:24.850Z,99811.00
2019-02-17T10:31:54.528Z,99824.00
2019-02-17T10:34:24.311Z,99831.00
2019-02-17T10:36:54.026Z,99826.00
2019-02-17T10:39:23.716Z,99836.00
2019-02-17T10:41:53.399Z,99847.00
2019-02-17T10:44:23.097Z,99825.00
2019-02-17T10:46:54.282Z,99837.00
2019-02-17T10:49:23.944Z,99843.00
2019-02-17T10:51:55.165Z,99843.00
2019-02-17T10:54:24.843Z,99844.00
2019-02-17T10:56:54.518Z,99843.00
2019-02-17T10:59:24.390Z,99824.00
2019-02-17T11:01:54.342Z,99836.00
2019-02-17T11:04:24.029Z,99828.00
2019-02-17T11:06:53.722Z,99846.00
2019-02-17T11:09:23.785Z,99842.00
2019-02-17T11:11:53.485Z,99835.00
2019-02-17T11:14:23.250Z,99825.00
2019-02-17T11:16:53.023Z,99826.00
2019-02-17T11:19:22.699Z,99813.00
2019-02-17T11:21:52.537Z,99813.00
2019-02-17T11:24:22.213Z,99809.00
2019-02-17T11:26:51.956Z,99806.00
2019-02-17T11:29:21.818Z,99804.00
2019-02-17T11:31:51.504Z,99800.00
2019-02-17T11:34:21.182Z,99803.00
2019-02-17T11:36:50.887Z,99803.00
2019-02-17T11:39:20.729Z,99805.00
2019-02-17T11:41:50.428Z,99805.00
2019-02-17T11:44:20.191Z,99800.00
2019-02-17T11:46:49.968Z,99808.00
2019-02-17T11:49:19.966Z,99805.00
2019-02-17T11:51:53.936Z,99798.00
2019-02-17T11:54:23.594Z,99803.00
2019-02-17T11:56:53.606Z,99807.00
2019-02-17T11:59:23.310Z,99807.00
2019-02-17T12:01:59.916Z,99848.00
2019-02-17T12:04:29.649Z,99819.00
2019-02-17T12:07:04.457Z,99810.00
2019-02-17T12:09:34.120Z,99819.00
2019-02-17T12:12:03.833Z,99812.00
2019-02-17T12:14:34.391Z,99806.00
2019-02-17T12:17:03.944Z,99808.00
2019-02-17T12:19:33.709Z,99788.00
2019-02-17T12:22:09.647Z,99799.00
2019-02-17T12:24:40.960Z,99799.00
2019-02-17T12:27:12.364Z,99803.00
2019-02-17T12:29:46.699Z,99799.00
2019-02-17T12:32:19.646Z,99800.00
2019-02-17T12:34:49.342Z,99793.00
2019-02-17T12:37:19.117Z,99804.00
2019-02-17T12:39:49.014Z,99812.00
2019-02-17T12:42:18.800Z,99809.00
2019-02-17T12:44:51.306Z,99822.00
2019-02-17T12:47:20.984Z,99820.00
2019-02-17T12:49:50.838Z,99817.00
2019-02-17T12:52:21.725Z,99803.00
2019-02-17T12:54:51.388Z,99819.00
2019-02-17T12:57:21.055Z,99808.00
2019-02-17T12:59:50.752Z,99805.00
2019-02-17T13:02:22.296Z,99794.00
2019-02-17T13:04:51.971Z,99791.00
2019-02-17T13:07:21.683Z,99789.00
2019-02-17T13:09:51.375Z,99783.00
2019-02-17T13:12:21.303Z,99784.00
2019-02-17T13:14:50.983Z,99787.00
2019-02-17T13:17:20.677Z,99786.00
2019-02-17T13:19:50.335Z,99784.00
2019-02-17T13:22:20.101Z,99785.00
2019-02-17T13:24:53.943Z,99780.00
2019-02-17T13:27:23.612Z,99787.00
2019-02-17T13:29:53.398Z,99782.00
2019-02-17T13:32:23.142Z,99781.00
2019-02-17T13:34:52.805Z,99783.00
2019-02-17T13:37:22.556Z,99788.00
2019-02-17T13:39:52.219Z,99786.00
2019-02-17T13:42:25.103Z,99778.00
2019-02-17T13:44:54.868Z,99788.00
2019-02-17T13:47:24.555Z,99783.00
2019-02-17T13:49:55.746Z,99786.00
2019-02-17T13:52:25.451Z,99781.00
2019-02-17T13:54:56.488Z,99777.00
2019-02-17T13:57:33.649Z,99781.00
2019-02-17T14:00:03.992Z,99789.00
2019-02-17T14:02:33.688Z,99784.00
2019-02-17T14:05:03.396Z,99776.00
2019-02-17T14:07:33.137Z,99774.00
2019-02-17T14:10:02.814Z,99781.00
2019-02-17T14:12:32.503Z,99769.00
2019-02-17T14:15:02.254Z,99780.00
2019-02-17T14:17:32.025Z,99788.00
2019-02-17T14:20:01.790Z,99760.00
2019-02-17T14:22:31.448Z,99763.00
2019-02-17T14:25:01.184Z,99768.00
2019-02-17T14:27:30.934Z,99767.00
2019-02-17T14:30:00.666Z,99763.00
2019-02-17T14:32:30.405Z,99760.00
2019-02-17T14:35:01.892Z,99755.00
2019-02-17T14:37:31.580Z,99773.00
2019-02-17T14:40:01.242Z,99765.00
2019-02-17T14:42:35.203Z,99763.00
2019-02-17T14:45:08.291Z,99777.00
2019-02-17T14:47:38.795Z,99777.00
2019-02-17T14:50:10.277Z,99780.00
2019-02-17T14:52:39.953Z,99788.00
2019-02-17T14:55:11.666Z,99788.00
2019-02-17T14:57:41.333Z,99772.00
2019-02-17T15:00:16.668Z,99777.00
2019-02-17T15:02:46.341Z,99781.00
2019-02-17T15:05:16.234Z,99774.00
2019-02-17T15:07:46.007Z,99794.00
2019-02-17T15:10:15.974Z,99787.00
2019-02-17T15:12:45.809Z,99788.00
2019-02-17T15:15:19.058Z,99779.00
2019-02-17T15:17:50.409Z,99782.00
2019-02-17T15:20:26.593Z,99781.00
2019-02-17T15:22:56.326Z,99782.00
2019-02-17T15:25:26.008Z,99783.00
2019-02-17T15:27:55.760Z,99774.00
2019-02-17T15:30:25.451Z,99749.00
2019-02-17T15:33:03.550Z,99775.00
2019-02-17T15:35:26.542Z,99778.00
2019-02-17T15:37:56.682Z,99776.00
2019-02-17T15:40:26.422Z,99788.00
2019-02-17T15:42:56.130Z,99783.00
2019-02-17T15:45:25.810Z,99767.00
2019-02-17T15:47:55.490Z,99762.00
2019-02-17T15:50:25.201Z,99763.00
2019-02-17T15:52:56.437Z,99757.00
2019-02-17T15:55:26.211Z,99757.00
2019-02-17T15:57:57.544Z,99762.00
2019-02-17T16:00:27.463Z,99778.00
2019-02-17T16:02:57.214Z,99781.00
2019-02-17T16:05:26.955Z,99785.00
2019-02-17T16:07:56.689Z,99784.00
2019-02-17T16:10:28.047Z,99777.00
2019-02-17T16:12:58.962Z,99763.00
2019-02-17T16:15:28.715Z,99767.00
2019-02-17T16:17:58.367Z,99765.00
2019-02-17T16:20:28.140Z,99785.00
2019-02-17T16:22:57.887Z,99791.00
2019-02-17T16:25:27.527Z,99780.00
2019-02-17T16:27:57.223Z,99777.00
2019-02-17T16:30:27.091Z,99776.00
2019-02-17T16:32:57.182Z,99774.00
2019-02-17T16:35:27.064Z,99789.00
2019-02-17T16:37:56.722Z,99776.00
2019-02-17T16:40:26.558Z,99781.00
2019-02-17T16:42:57.227Z,99778.00
2019-02-17T16:45:27.048Z,99783.00
2019-02-17T16:47:57.575Z,99784.00
2019-02-17T16:50:33.319Z,99785.00
2019-02-17T16:53:04.296Z,99791.00
2019-02-17T16:55:33.969Z,99794.00
2019-02-17T16:58:03.725Z,99790.00
2019-02-17T17:00:33.428Z,99789.00
2019-02-17T17:03:03.155Z,99800.00
2019-02-17T17:05:32.921Z,99800.00
2019-02-17T17:08:02.581Z,99804.00
2019-02-17T17:10:32.259Z,99804.00
2019-02-17T17:13:01.966Z,99824.00
2019-02-17T17:15:31.698Z,99807.00
2019-02-17T17:18:01.578Z,99806.00
2019-02-17T17:20:50.552Z,99812.00
2019-02-17T17:23:20.409Z,99819.00
2019-02-17T17:25:50.404Z,99819.00
2019-02-17T17:28:20.416Z,99819.00
2019-02-17T17:30:50.077Z,99807.00
2019-02-17T17:33:19.833Z,99811.00
2019-02-17T17:35:49.602Z,99811.00
2019-02-17T17:38:19.320Z,99811.00
2019-02-17T17:40:49.053Z,99824.00
2019-02-17T17:43:18.753Z,99821.00
2019-02-17T17:45:48.503Z,99826.00
2019-02-17T17:48:18.294Z,99828.00
2019-02-17T17:50:48.033Z,99826.00
2019-02-17T17:53:17.890Z,99836.00
2019-02-17T17:55:49.148Z,99837.00
2019-02-17T17:58:18.960Z,99841.00
2019-02-17T18:00:48.708Z,99840.00
2019-02-17T18:03:18.390Z,99845.00
2019-02-17T18:05:48.093Z,99851.00
2019-02-17T18:08:17.857Z,99842.00
2019-02-17T18:10:47.536Z,99854.00
2019-02-17T18:13:18.890Z,99848.00
2019-02-17T18:15:48.556Z,99852.00
2019-02-17T18:18:18.238Z,99842.00
2019-02-17T18:21:07.112Z,99845.00
2019-02-17T18:23:36.784Z,99845.00
2019-02-17T18:26:06.778Z,99855.00
2019-02-17T18:28:37.265Z,99862.00
2019-02-17T18:31:07.068Z,99859.00
2019-02-17T18:33:38.928Z,99854.00
2019-02-17T18:36:27.783Z,99858.00
2019-02-17T18:38:57.536Z,99867.00
2019-02-17T18:41:27.308Z,99867.00
2019-02-17T18:43:57.811Z,99884.00
2019-02-17T18:46:27.480Z,99841.00
2019-02-17T18:48:58.383Z,99879.00
2019-02-17T18:51:28.155Z,99879.00
2019-02-17T18:53:57.954Z,99877.00
2019-02-17T18:56:27.618Z,99885.00
2019-02-17T18:58:57.396Z,99886.00
2019-02-17T19:01:27.068Z,99880.00
2019-02-17T19:03:56.799Z,99873.00
2019-02-17T19:06:26.502Z,99875.00
2019-02-17T19:08:57.475Z,99872.00
2019-02-17T19:11:27.138Z,99875.00
2019-02-17T19:14:16.106Z,99876.00
2019-02-17T19:16:45.838Z,99876.00
2019-02-17T19:19:15.592Z,99883.00
2019-02-17T19:21:45.375Z,99870.00
2019-02-17T19:24:15.046Z,99882.00
2019-02-17T19:26:44.786Z,99879.00
2019-02-17T19:29:16.471Z,99879.00
2019-02-17T19:31:46.136Z,99867.00
2019-02-17T19:34:16.041Z,99874.00
2019-02-17T19:36:46.059Z,99880.00
2019-02-17T19:39:18.520Z,99888.00
2019-02-17T19:41:51.546Z,99881.00
2019-02-17T19:44:21.248Z,99885.00
2019-02-17T19:46:51.134Z,99889.00
2019-02-17T19:49:20.848Z,99892.00
2019-02-17T19:51:50.522Z,99893.00
2019-02-17T19:54:20.278Z,99899.00
2019-02-17T19:56:50.018Z,99892.00
2019-02-17T19:59:19.721Z,99899.00
2019-02-17T20:01:50.341Z,99898.00
2019-02-17T20:04:21.657Z,99900.00
2019-02-17T20:06:52.869Z,99902.00
2019-02-17T20:09:22.533Z,99906.00
2019-02-17T20:11:52.496Z,99896.00
2019-02-17T20:14:23.742Z,99904.00
2019-02-17T20:16:53.672Z,99903.00
2019-02-17T20:19:25.619Z,99906.00
2019-02-17T20:21:55.299Z,99908.00
2019-02-17T20:24:24.982Z,99913.00
2019-02-17T20:26:54.653Z,99910.00
2019-02-17T20:29:24.361Z,99900.00
2019-02-17T20:31:54.112Z,99904.00
2019-02-17T20:34:23.812Z,99908.00
2019-02-17T20:36:53.644Z,99912.00
2019-02-17T20:39:23.378Z,99919.00
2019-02-17T20:41:53.079Z,99919.00
2019-02-17T20:44:22.765Z,99916.00
2019-02-17T20:46:52.444Z,99924.00
2019-02-17T20:49:22.113Z,99911.00
2019-02-17T20:51:51.887Z,99922.00
2019-02-17T20:54:21.699Z,99920.00
2019-02-17T20:56:51.368Z,99919.00
2019-02-17T20:59:21.470Z,99925.00
2019-02-17T21:01:51.144Z,99929.00
2019-02-17T21:04:20.914Z,99932.00
2019-02-17T21:06:50.674Z,99936.00
2019-02-17T21:09:20.411Z,99939.00
2019-02-17T21:11:55.546Z,99938.00
2019-02-17T21:14:44.562Z,99935.00
2019-02-17T21:17:14.243Z,99931.00
2019-02-17T21:19:44.396Z,99920.00
2019-02-17T21:22:14.353Z,99933.00
2019-02-17T21:24:44.486Z,99927.00
2019-02-17T21:27:14.971Z,99925.00
2019-02-17T21:29:44.763Z,99931.00
2019-02-17T21:32:14.438Z,99932.00
2019-02-17T21:34:44.118Z,99938.00
2019-02-17T21:37:13.813Z,99935.00
2019-02-17T21:39:43.495Z,99945.00
2019-02-17T21:42:13.188Z,99931.00
2019-02-17T21:44:42.874Z,99930.00
2019-02-17T21:47:12.597Z,99925.00
2019-02-17T21:49:43.765Z,99945.00
2019-02-17T21:52:13.441Z,99939.00
2019-02-17T21:55:02.454Z,99950.00
2019-02-17T21:57:32.139Z,99951.00
2019-02-17T22:00:01.810Z,99948.00
2019-02-17T22:02:31.471Z,99951.00
2019-02-17T22:05:01.264Z,99952.00
2019-02-17T22:07:31.270Z,99945.00
2019-02-17T22:10:01.291Z,99954.00
2019-02-17T22:12:31.114Z,99957.00
2019-02-17T22:15:03.116Z,99953.00
2019-02-17T22:17:32.785Z,99952.00
2019-02-17T22:20:02.490Z,99951.00
2019-02-17T22:22:32.151Z,99957.00
2019-02-17T22:25:01.852Z,99955.00
2019-02-17T22:27:31.546Z,99955.00
2019-02-17T22:30:01.232Z,99943.00
2019-02-17T22:32:32.435Z,99950.00
2019-02-17T22:35:02.150Z,99952.00
2019-02-17T22:37:32.320Z,99962.00
2019-02-17T22:40:03.690Z,99962.00
2019-02-17T22:42:33.378Z,99956.00
2019-02-17T22:45:05.766Z,99944.00
2019-02-17T22:47:35.435Z,99956.00
2019-02-17T22:50:08.506Z,99953.00
2019-02-17T22:52:38.220Z,99948.00
2019-02-17T22:55:13.478Z,99954.00
2019-02-17T22:57:45.458Z,99940.00
2019-02-17T23:00:47.768Z,99941.00
2019-02-17T23:03:17.590Z,99938.00
2019-02-17T23:05:47.649Z,99943.00
2019-02-17T23:08:17.347Z,99939.00
2019-02-17T23:10:48.720Z,99939.00
2019-02-17T23:13:18.467Z,99938.00
2019-02-17T23:15:49.419Z,99938.00
2019-02-17T23:18:19.120Z,99934.00
2019-02-17T23:20:48.788Z,99935.00
2019-02-17T23:23:18.796Z,99942.00
2019-02-17T23:25:48.335Z,99936.00
2019-02-17T23:28:18.086Z,99941.00
2019-02-17T23:30:47.750Z,99946.00
2019-02-17T23:33:17.459Z,99937.00
2019-02-17T23:35:47.204Z,99947.00
2019-02-17T23:38:16.880Z,99942.00
2019-02-17T23:40:46.582Z,99936.00
2019-02-17T23:43:17.753Z,99953.00
2019-02-17T23:45:47.492Z,99955.00
2019-02-17T23:48:17.852Z,99949.00
2019-02-17T23:50:47.583Z,99950.00
2019-02-17T23:53:18.719Z,99951.00
2019-02-17T23:55:49.876Z,99948.00
2019-02-17T23:58:19.642Z,99902.00
